sensor_id;sensor_type;location;lat;lon;timestamp;P1;durP1;ratioP1;P2;durP2;ratioP2
73474;SDS011;61711;52.266;10.542;2022-12-20T00:02:24;14.55;;;8.02;;
73474;SDS011;61711;52.266;10.542;2022-12-20T00:04:50;16.20;;;8.02;;
73474;SDS011;61711;52.266;10.542;2022-12-20T00:07:16;16.98;;;8.52;;
73474;SDS011;61711;52.266;10.542;2022-12-20T00:09:42;14.35;;;7.80;;
73474;SDS011;61711;52.266;10.542;2022-12-20T00:12:08;14.68;;;7.95;;
73474;SDS011;61711;52.266;10.542;2022-12-20T00:14:34;17.85;;;9.05;;
73474;SDS011;61711;52.266;10.542;2022-12-20T00:17:00;14.35;;;8.48;;
73474;SDS011;61711;52.266;10.542;2022-12-20T00:19:26;14.75;;;8.23;;
73474;SDS011;61711;52.266;10.542;2022-12-20T00:21:52;16.85;;;8.48;;
73474;SDS011;61711;52.266;10.542;2022-12-20T00:24:18;15.80;;;8.43;;
73474;SDS011;61711;52.266;10.542;2022-12-20T00:26:44;16.30;;;8.52;;
73474;SDS011;61711;52.266;10.542;2022-12-20T00:29:10;13.65;;;8.20;;
73474;SDS011;61711;52.266;10.542;2022-12-20T00:31:36;15.77;;;8.55;;
73474;SDS011;61711;52.266;10.542;2022-12-20T00:34:03;15.52;;;8.63;;
73474;SDS011;61711;52.266;10.542;2022-12-20T00:36:30;15.13;;;8.10;;
73474;SDS011;61711;52.266;10.542;2022-12-20T00:38:56;17.33;;;8.40;;
73474;SDS011;61711;52.266;10.542;2022-12-20T00:41:23;15.48;;;8.52;;
73474;SDS011;61711;52.266;10.542;2022-12-20T00:43:50;15.75;;;8.57;;
73474;SDS011;61711;52.266;10.542;2022-12-20T00:46:17;15.88;;;8.30;;
73474;SDS011;61711;52.266;10.542;2022-12-20T00:48:43;14.48;;;7.97;;
73474;SDS011;61711;52.266;10.542;2022-12-20T00:51:13;17.13;;;8.77;;
73474;SDS011;61711;52.266;10.542;2022-12-20T00:53:40;16.15;;;8.23;;
73474;SDS011;61711;52.266;10.542;2022-12-20T00:56:06;15.43;;;8.73;;
73474;SDS011;61711;52.266;10.542;2022-12-20T00:58:33;14.48;;;8.65;;
73474;SDS011;61711;52.266;10.542;2022-12-20T01:01:00;14.60;;;8.15;;
73474;SDS011;61711;52.266;10.542;2022-12-20T01:03:26;16.20;;;8.93;;
73474;SDS011;61711;52.266;10.542;2022-12-20T01:05:53;16.98;;;8.75;;
73474;SDS011;61711;52.266;10.542;2022-12-20T01:08:19;17.77;;;8.70;;
73474;SDS011;61711;52.266;10.542;2022-12-20T01:10:46;15.27;;;8.23;;
73474;SDS011;61711;52.266;10.542;2022-12-20T01:13:12;16.08;;;8.68;;
73474;SDS011;61711;52.266;10.542;2022-12-20T01:15:38;14.32;;;8.15;;
73474;SDS011;61711;52.266;10.542;2022-12-20T01:18:04;14.80;;;8.38;;
73474;SDS011;61711;52.266;10.542;2022-12-20T01:20:30;14.40;;;8.40;;
73474;SDS011;61711;52.266;10.542;2022-12-20T01:22:56;16.23;;;8.38;;
73474;SDS011;61711;52.266;10.542;2022-12-20T01:25:22;15.57;;;8.15;;
73474;SDS011;61711;52.266;10.542;2022-12-20T01:27:48;16.23;;;8.13;;
73474;SDS011;61711;52.266;10.542;2022-12-20T01:30:14;14.13;;;7.50;;
73474;SDS011;61711;52.266;10.542;2022-12-20T01:32:40;17.95;;;7.80;;
73474;SDS011;61711;52.266;10.542;2022-12-20T01:35:06;14.15;;;8.20;;
73474;SDS011;61711;52.266;10.542;2022-12-20T01:37:32;15.10;;;7.75;;
73474;SDS011;61711;52.266;10.542;2022-12-20T01:39:58;14.82;;;7.85;;
73474;SDS011;61711;52.266;10.542;2022-12-20T01:42:24;14.63;;;8.15;;
73474;SDS011;61711;52.266;10.542;2022-12-20T01:44:51;13.90;;;8.18;;
73474;SDS011;61711;52.266;10.542;2022-12-20T01:47:19;16.52;;;8.90;;
73474;SDS011;61711;52.266;10.542;2022-12-20T01:49:46;12.93;;;7.47;;
73474;SDS011;61711;52.266;10.542;2022-12-20T01:52:25;11.55;;;6.80;;
73474;SDS011;61711;52.266;10.542;2022-12-20T01:54:54;14.93;;;8.00;;
73474;SDS011;61711;52.266;10.542;2022-12-20T01:57:23;13.48;;;7.45;;
73474;SDS011;61711;52.266;10.542;2022-12-20T01:59:50;15.27;;;7.75;;
73474;SDS011;61711;52.266;10.542;2022-12-20T02:02:17;13.52;;;7.55;;
73474;SDS011;61711;52.266;10.542;2022-12-20T02:04:43;12.52;;;7.50;;
73474;SDS011;61711;52.266;10.542;2022-12-20T02:07:10;13.68;;;7.68;;
73474;SDS011;61711;52.266;10.542;2022-12-20T02:09:37;14.52;;;8.43;;
73474;SDS011;61711;52.266;10.542;2022-12-20T02:14:31;15.68;;;7.85;;
73474;SDS011;61711;52.266;10.542;2022-12-20T02:24:53;15.40;;;8.23;;
73474;SDS011;61711;52.266;10.542;2022-12-20T02:32:25;14.75;;;7.65;;
73474;SDS011;61711;52.266;10.542;2022-12-20T02:34:53;16.23;;;8.13;;
73474;SDS011;61711;52.266;10.542;2022-12-20T02:37:19;13.05;;;7.72;;
73474;SDS011;61711;52.266;10.542;2022-12-20T02:39:45;14.45;;;7.35;;
73474;SDS011;61711;52.266;10.542;2022-12-20T02:42:12;15.27;;;7.68;;
73474;SDS011;61711;52.266;10.542;2022-12-20T02:44:46;13.65;;;7.53;;
73474;SDS011;61711;52.266;10.542;2022-12-20T02:47:33;16.83;;;8.48;;
73474;SDS011;61711;52.266;10.542;2022-12-20T02:50:01;14.48;;;7.82;;
73474;SDS011;61711;52.266;10.542;2022-12-20T02:52:27;15.27;;;8.30;;
73474;SDS011;61711;52.266;10.542;2022-12-20T02:54:55;13.20;;;7.90;;
73474;SDS011;61711;52.266;10.542;2022-12-20T03:00:04;15.10;;;7.30;;
73474;SDS011;61711;52.266;10.542;2022-12-20T03:02:31;17.10;;;8.77;;
73474;SDS011;61711;52.266;10.542;2022-12-20T03:05:18;12.93;;;7.82;;
73474;SDS011;61711;52.266;10.542;2022-12-20T03:07:45;13.57;;;7.97;;
73474;SDS011;61711;52.266;10.542;2022-12-20T03:10:11;15.05;;;8.13;;
73474;SDS011;61711;52.266;10.542;2022-12-20T03:12:37;14.00;;;7.95;;
73474;SDS011;61711;52.266;10.542;2022-12-20T03:15:03;12.63;;;7.25;;
73474;SDS011;61711;52.266;10.542;2022-12-20T03:17:29;14.68;;;7.65;;
73474;SDS011;61711;52.266;10.542;2022-12-20T03:19:56;15.05;;;7.60;;
73474;SDS011;61711;52.266;10.542;2022-12-20T03:22:22;13.25;;;7.80;;
73474;SDS011;61711;52.266;10.542;2022-12-20T03:24:48;14.98;;;7.70;;
73474;SDS011;61711;52.266;10.542;2022-12-20T03:27:14;14.07;;;7.70;;
73474;SDS011;61711;52.266;10.542;2022-12-20T03:29:41;13.52;;;7.88;;
73474;SDS011;61711;52.266;10.542;2022-12-20T03:32:08;12.98;;;7.82;;
73474;SDS011;61711;52.266;10.542;2022-12-20T03:34:34;14.57;;;7.57;;
73474;SDS011;61711;52.266;10.542;2022-12-20T03:37:00;13.95;;;7.75;;
73474;SDS011;61711;52.266;10.542;2022-12-20T03:39:26;16.67;;;7.90;;
73474;SDS011;61711;52.266;10.542;2022-12-20T03:41:52;13.82;;;7.22;;
73474;SDS011;61711;52.266;10.542;2022-12-20T03:44:18;13.18;;;7.55;;
73474;SDS011;61711;52.266;10.542;2022-12-20T03:46:44;11.40;;;7.47;;
73474;SDS011;61711;52.266;10.542;2022-12-20T03:49:10;14.90;;;7.20;;
73474;SDS011;61711;52.266;10.542;2022-12-20T03:51:36;14.57;;;7.28;;
73474;SDS011;61711;52.266;10.542;2022-12-20T03:54:02;11.90;;;6.97;;
73474;SDS011;61711;52.266;10.542;2022-12-20T03:56:28;12.13;;;7.05;;
73474;SDS011;61711;52.266;10.542;2022-12-20T03:58:54;10.98;;;6.88;;
73474;SDS011;61711;52.266;10.542;2022-12-20T04:01:21;12.88;;;7.03;;
73474;SDS011;61711;52.266;10.542;2022-12-20T04:03:47;10.38;;;6.75;;
73474;SDS011;61711;52.266;10.542;2022-12-20T04:06:13;13.32;;;7.10;;
73474;SDS011;61711;52.266;10.542;2022-12-20T04:08:40;13.10;;;6.72;;
73474;SDS011;61711;52.266;10.542;2022-12-20T04:11:06;13.63;;;7.07;;
73474;SDS011;61711;52.266;10.542;2022-12-20T04:13:48;14.20;;;7.25;;
73474;SDS011;61711;52.266;10.542;2022-12-20T04:16:15;14.00;;;7.03;;
73474;SDS011;61711;52.266;10.542;2022-12-20T04:18:41;13.70;;;7.25;;
73474;SDS011;61711;52.266;10.542;2022-12-20T04:21:08;11.88;;;6.78;;
73474;SDS011;61711;52.266;10.542;2022-12-20T04:23:35;9.23;;;5.97;;
73474;SDS011;61711;52.266;10.542;2022-12-20T04:26:02;9.32;;;5.90;;
73474;SDS011;61711;52.266;10.542;2022-12-20T04:28:28;11.88;;;6.40;;
73474;SDS011;61711;52.266;10.542;2022-12-20T04:30:54;11.35;;;5.82;;
73474;SDS011;61711;52.266;10.542;2022-12-20T04:33:21;10.13;;;5.90;;
73474;SDS011;61711;52.266;10.542;2022-12-20T04:35:47;12.52;;;6.60;;
73474;SDS011;61711;52.266;10.542;2022-12-20T04:38:13;10.15;;;5.85;;
73474;SDS011;61711;52.266;10.542;2022-12-20T04:40:39;11.15;;;6.45;;
73474;SDS011;61711;52.266;10.542;2022-12-20T04:43:05;10.45;;;6.35;;
73474;SDS011;61711;52.266;10.542;2022-12-20T04:45:32;11.02;;;6.28;;
73474;SDS011;61711;52.266;10.542;2022-12-20T04:47:58;12.75;;;6.15;;
73474;SDS011;61711;52.266;10.542;2022-12-20T04:50:24;11.02;;;6.22;;
73474;SDS011;61711;52.266;10.542;2022-12-20T04:52:50;12.75;;;6.05;;
73474;SDS011;61711;52.266;10.542;2022-12-20T04:55:37;11.10;;;6.18;;
73474;SDS011;61711;52.266;10.542;2022-12-20T04:58:04;10.35;;;6.00;;
73474;SDS011;61711;52.266;10.542;2022-12-20T05:00:30;9.38;;;5.53;;
73474;SDS011;61711;52.266;10.542;2022-12-20T05:02:56;12.55;;;6.57;;
73474;SDS011;61711;52.266;10.542;2022-12-20T05:05:22;11.73;;;6.60;;
73474;SDS011;61711;52.266;10.542;2022-12-20T05:07:48;11.73;;;6.60;;
73474;SDS011;61711;52.266;10.542;2022-12-20T05:10:14;11.52;;;6.60;;
73474;SDS011;61711;52.266;10.542;2022-12-20T05:12:40;30.17;;;15.60;;
73474;SDS011;61711;52.266;10.542;2022-12-20T05:15:06;16.02;;;8.85;;
73474;SDS011;61711;52.266;10.542;2022-12-20T05:17:33;13.60;;;7.03;;
73474;SDS011;61711;52.266;10.542;2022-12-20T05:19:59;9.18;;;6.32;;
73474;SDS011;61711;52.266;10.542;2022-12-20T05:22:25;11.02;;;5.72;;
73474;SDS011;61711;52.266;10.542;2022-12-20T05:25:09;10.93;;;6.60;;
73474;SDS011;61711;52.266;10.542;2022-12-20T05:27:54;11.50;;;6.82;;
73474;SDS011;61711;52.266;10.542;2022-12-20T05:30:20;11.13;;;6.50;;
73474;SDS011;61711;52.266;10.542;2022-12-20T05:32:46;13.60;;;6.75;;
73474;SDS011;61711;52.266;10.542;2022-12-20T05:35:12;14.15;;;7.68;;
73474;SDS011;61711;52.266;10.542;2022-12-20T05:37:38;13.10;;;7.82;;
73474;SDS011;61711;52.266;10.542;2022-12-20T05:40:04;15.15;;;8.10;;
73474;SDS011;61711;52.266;10.542;2022-12-20T05:42:31;14.45;;;7.90;;
73474;SDS011;61711;52.266;10.542;2022-12-20T05:44:57;15.10;;;8.10;;
73474;SDS011;61711;52.266;10.542;2022-12-20T05:47:23;13.93;;;8.30;;
73474;SDS011;61711;52.266;10.542;2022-12-20T05:49:49;17.30;;;8.38;;
73474;SDS011;61711;52.266;10.542;2022-12-20T05:52:15;13.75;;;7.68;;
73474;SDS011;61711;52.266;10.542;2022-12-20T05:54:41;13.98;;;7.40;;
73474;SDS011;61711;52.266;10.542;2022-12-20T05:57:07;13.93;;;7.32;;
73474;SDS011;61711;52.266;10.542;2022-12-20T05:59:33;12.80;;;7.38;;
73474;SDS011;61711;52.266;10.542;2022-12-20T06:01:59;10.63;;;7.18;;
73474;SDS011;61711;52.266;10.542;2022-12-20T06:04:25;13.70;;;7.45;;
73474;SDS011;61711;52.266;10.542;2022-12-20T06:06:51;12.05;;;6.63;;
73474;SDS011;61711;52.266;10.542;2022-12-20T06:09:17;13.60;;;7.50;;
73474;SDS011;61711;52.266;10.542;2022-12-20T06:11:43;15.80;;;8.10;;
73474;SDS011;61711;52.266;10.542;2022-12-20T06:14:09;16.65;;;7.90;;
73474;SDS011;61711;52.266;10.542;2022-12-20T06:16:35;13.05;;;7.70;;
73474;SDS011;61711;52.266;10.542;2022-12-20T06:19:01;14.98;;;8.35;;
73474;SDS011;61711;52.266;10.542;2022-12-20T06:21:27;16.85;;;9.00;;
73474;SDS011;61711;52.266;10.542;2022-12-20T06:23:53;16.10;;;9.18;;
73474;SDS011;61711;52.266;10.542;2022-12-20T06:26:20;16.65;;;8.93;;
73474;SDS011;61711;52.266;10.542;2022-12-20T06:28:49;16.40;;;8.93;;
73474;SDS011;61711;52.266;10.542;2022-12-20T06:31:21;14.48;;;7.97;;
73474;SDS011;61711;52.266;10.542;2022-12-20T06:33:47;18.85;;;8.07;;
73474;SDS011;61711;52.266;10.542;2022-12-20T06:36:13;15.10;;;7.40;;
73474;SDS011;61711;52.266;10.542;2022-12-20T06:38:39;14.70;;;8.23;;
73474;SDS011;61711;52.266;10.542;2022-12-20T06:41:05;13.90;;;8.30;;
73474;SDS011;61711;52.266;10.542;2022-12-20T06:43:31;13.38;;;7.97;;
73474;SDS011;61711;52.266;10.542;2022-12-20T06:45:57;12.73;;;7.97;;
73474;SDS011;61711;52.266;10.542;2022-12-20T06:48:23;16.92;;;7.53;;
73474;SDS011;61711;52.266;10.542;2022-12-20T06:50:49;15.07;;;8.07;;
73474;SDS011;61711;52.266;10.542;2022-12-20T06:53:15;13.13;;;7.20;;
73474;SDS011;61711;52.266;10.542;2022-12-20T06:55:41;15.95;;;7.75;;
73474;SDS011;61711;52.266;10.542;2022-12-20T06:58:07;11.43;;;6.95;;
73474;SDS011;61711;52.266;10.542;2022-12-20T07:00:33;15.88;;;7.55;;
73474;SDS011;61711;52.266;10.542;2022-12-20T07:02:59;13.05;;;7.00;;
73474;SDS011;61711;52.266;10.542;2022-12-20T07:05:25;14.98;;;8.00;;
73474;SDS011;61711;52.266;10.542;2022-12-20T07:07:51;15.10;;;7.95;;
73474;SDS011;61711;52.266;10.542;2022-12-20T07:10:17;12.05;;;7.55;;
73474;SDS011;61711;52.266;10.542;2022-12-20T07:12:43;14.48;;;8.55;;
73474;SDS011;61711;52.266;10.542;2022-12-20T07:15:09;12.77;;;7.65;;
73474;SDS011;61711;52.266;10.542;2022-12-20T07:17:35;12.95;;;8.50;;
73474;SDS011;61711;52.266;10.542;2022-12-20T07:20:01;14.95;;;8.73;;
73474;SDS011;61711;52.266;10.542;2022-12-20T07:22:27;18.13;;;8.30;;
73474;SDS011;61711;52.266;10.542;2022-12-20T07:24:53;16.70;;;8.32;;
73474;SDS011;61711;52.266;10.542;2022-12-20T07:27:20;15.27;;;8.75;;
73474;SDS011;61711;52.266;10.542;2022-12-20T07:29:46;15.07;;;8.68;;
73474;SDS011;61711;52.266;10.542;2022-12-20T07:32:12;18.08;;;9.00;;
73474;SDS011;61711;52.266;10.542;2022-12-20T07:34:38;16.90;;;9.43;;
73474;SDS011;61711;52.266;10.542;2022-12-20T07:37:04;17.40;;;8.95;;
73474;SDS011;61711;52.266;10.542;2022-12-20T07:39:30;18.50;;;9.00;;
73474;SDS011;61711;52.266;10.542;2022-12-20T07:41:56;16.13;;;9.80;;
73474;SDS011;61711;52.266;10.542;2022-12-20T07:44:22;13.73;;;7.43;;
73474;SDS011;61711;52.266;10.542;2022-12-20T07:46:48;13.77;;;7.97;;
73474;SDS011;61711;52.266;10.542;2022-12-20T07:49:14;14.00;;;7.95;;
73474;SDS011;61711;52.266;10.542;2022-12-20T07:51:41;16.40;;;7.93;;
73474;SDS011;61711;52.266;10.542;2022-12-20T07:54:10;16.63;;;8.52;;
73474;SDS011;61711;52.266;10.542;2022-12-20T07:56:38;13.75;;;7.60;;
73474;SDS011;61711;52.266;10.542;2022-12-20T07:59:06;12.02;;;7.13;;
73474;SDS011;61711;52.266;10.542;2022-12-20T08:01:32;12.27;;;7.72;;
73474;SDS011;61711;52.266;10.542;2022-12-20T08:04:06;13.38;;;7.40;;
73474;SDS011;61711;52.266;10.542;2022-12-20T08:06:34;12.23;;;6.47;;
73474;SDS011;61711;52.266;10.542;2022-12-20T08:09:02;11.80;;;7.63;;
73474;SDS011;61711;52.266;10.542;2022-12-20T08:11:29;13.43;;;7.28;;
73474;SDS011;61711;52.266;10.542;2022-12-20T08:13:55;12.20;;;7.32;;
73474;SDS011;61711;52.266;10.542;2022-12-20T08:16:21;12.52;;;7.28;;
73474;SDS011;61711;52.266;10.542;2022-12-20T08:18:47;16.25;;;8.27;;
73474;SDS011;61711;52.266;10.542;2022-12-20T08:21:13;16.40;;;8.00;;
73474;SDS011;61711;52.266;10.542;2022-12-20T08:23:39;21.27;;;8.63;;
73474;SDS011;61711;52.266;10.542;2022-12-20T08:26:05;14.15;;;8.27;;
73474;SDS011;61711;52.266;10.542;2022-12-20T08:28:31;13.55;;;7.57;;
73474;SDS011;61711;52.266;10.542;2022-12-20T08:31:04;12.30;;;7.22;;
73474;SDS011;61711;52.266;10.542;2022-12-20T08:33:31;14.48;;;7.10;;
73474;SDS011;61711;52.266;10.542;2022-12-20T08:35:57;11.23;;;6.35;;
73474;SDS011;61711;52.266;10.542;2022-12-20T08:38:27;14.85;;;7.25;;
73474;SDS011;61711;52.266;10.542;2022-12-20T08:40:53;13.88;;;7.38;;
73474;SDS011;61711;52.266;10.542;2022-12-20T08:43:20;13.30;;;7.22;;
73474;SDS011;61711;52.266;10.542;2022-12-20T08:45:50;13.10;;;7.00;;
73474;SDS011;61711;52.266;10.542;2022-12-20T08:48:17;12.32;;;7.20;;
73474;SDS011;61711;52.266;10.542;2022-12-20T08:50:43;15.40;;;7.78;;
73474;SDS011;61711;52.266;10.542;2022-12-20T08:53:09;13.30;;;7.18;;
73474;SDS011;61711;52.266;10.542;2022-12-20T08:55:35;12.65;;;7.47;;
73474;SDS011;61711;52.266;10.542;2022-12-20T08:58:01;15.82;;;6.97;;
73474;SDS011;61711;52.266;10.542;2022-12-20T09:00:27;13.73;;;7.22;;
73474;SDS011;61711;52.266;10.542;2022-12-20T09:02:53;10.95;;;6.00;;
73474;SDS011;61711;52.266;10.542;2022-12-20T09:05:19;10.23;;;6.10;;
73474;SDS011;61711;52.266;10.542;2022-12-20T09:07:45;9.70;;;5.90;;
73474;SDS011;61711;52.266;10.542;2022-12-20T09:10:11;12.00;;;6.00;;
73474;SDS011;61711;52.266;10.542;2022-12-20T09:12:38;9.55;;;5.43;;
73474;SDS011;61711;52.266;10.542;2022-12-20T09:15:04;9.50;;;5.53;;
73474;SDS011;61711;52.266;10.542;2022-12-20T09:17:31;7.47;;;4.82;;
73474;SDS011;61711;52.266;10.542;2022-12-20T09:19:57;11.50;;;5.53;;
73474;SDS011;61711;52.266;10.542;2022-12-20T09:22:22;8.35;;;5.25;;
73474;SDS011;61711;52.266;10.542;2022-12-20T09:24:48;10.23;;;5.68;;
73474;SDS011;61711;52.266;10.542;2022-12-20T09:27:14;9.18;;;5.32;;
73474;SDS011;61711;52.266;10.542;2022-12-20T09:29:40;8.85;;;5.60;;
73474;SDS011;61711;52.266;10.542;2022-12-20T09:32:06;9.30;;;5.45;;
73474;SDS011;61711;52.266;10.542;2022-12-20T09:34:32;10.82;;;5.43;;
73474;SDS011;61711;52.266;10.542;2022-12-20T09:36:58;10.20;;;5.50;;
73474;SDS011;61711;52.266;10.542;2022-12-20T09:39:25;8.57;;;5.20;;
73474;SDS011;61711;52.266;10.542;2022-12-20T09:41:51;11.63;;;5.00;;
73474;SDS011;61711;52.266;10.542;2022-12-20T09:44:24;7.32;;;4.55;;
73474;SDS011;61711;52.266;10.542;2022-12-20T09:46:53;6.63;;;4.43;;
73474;SDS011;61711;52.266;10.542;2022-12-20T09:49:20;9.30;;;5.45;;
73474;SDS011;61711;52.266;10.542;2022-12-20T09:51:59;5.95;;;4.28;;
73474;SDS011;61711;52.266;10.542;2022-12-20T09:59:48;7.88;;;4.53;;
73474;SDS011;61711;52.266;10.542;2022-12-20T10:02:15;8.13;;;5.15;;
73474;SDS011;61711;52.266;10.542;2022-12-20T10:04:44;7.45;;;4.82;;
73474;SDS011;61711;52.266;10.542;2022-12-20T10:22:55;6.30;;;4.20;;
73474;SDS011;61711;52.266;10.542;2022-12-20T10:25:20;8.00;;;4.53;;
73474;SDS011;61711;52.266;10.542;2022-12-20T10:27:49;8.70;;;4.13;;
73474;SDS011;61711;52.266;10.542;2022-12-20T10:30:18;7.05;;;4.60;;
73474;SDS011;61711;52.266;10.542;2022-12-20T10:32:46;7.90;;;4.53;;
73474;SDS011;61711;52.266;10.542;2022-12-20T10:37:58;8.85;;;4.10;;
73474;SDS011;61711;52.266;10.542;2022-12-20T10:40:34;6.13;;;4.07;;
73474;SDS011;61711;52.266;10.542;2022-12-20T10:43:01;5.72;;;3.65;;
73474;SDS011;61711;52.266;10.542;2022-12-20T10:45:37;8.13;;;4.10;;
73474;SDS011;61711;52.266;10.542;2022-12-20T10:48:05;5.43;;;3.83;;
73474;SDS011;61711;52.266;10.542;2022-12-20T10:50:32;6.63;;;3.90;;
73474;SDS011;61711;52.266;10.542;2022-12-20T10:53:15;8.18;;;4.50;;
73474;SDS011;61711;52.266;10.542;2022-12-20T10:55:44;5.63;;;3.58;;
73474;SDS011;61711;52.266;10.542;2022-12-20T10:58:12;5.68;;;3.88;;
73474;SDS011;61711;52.266;10.542;2022-12-20T11:00:39;5.93;;;3.78;;
73474;SDS011;61711;52.266;10.542;2022-12-20T11:05:38;6.35;;;3.70;;
73474;SDS011;61711;52.266;10.542;2022-12-20T11:10:34;5.45;;;4.13;;
73474;SDS011;61711;52.266;10.542;2022-12-20T11:13:01;6.57;;;3.97;;
73474;SDS011;61711;52.266;10.542;2022-12-20T11:15:28;6.45;;;4.10;;
73474;SDS011;61711;52.266;10.542;2022-12-20T11:17:55;5.28;;;3.45;;
73474;SDS011;61711;52.266;10.542;2022-12-20T11:28:31;6.07;;;3.47;;
73474;SDS011;61711;52.266;10.542;2022-12-20T11:38:42;5.85;;;3.90;;
73474;SDS011;61711;52.266;10.542;2022-12-20T11:46:49;6.90;;;3.67;;
73474;SDS011;61711;52.266;10.542;2022-12-20T11:49:26;6.90;;;3.63;;
73474;SDS011;61711;52.266;10.542;2022-12-20T11:56:52;7.53;;;3.70;;
73474;SDS011;61711;52.266;10.542;2022-12-20T11:59:41;7.57;;;4.10;;
73474;SDS011;61711;52.266;10.542;2022-12-20T12:05:02;7.68;;;4.50;;
73474;SDS011;61711;52.266;10.542;2022-12-20T12:07:30;8.45;;;3.67;;
73474;SDS011;61711;52.266;10.542;2022-12-20T12:10:04;6.25;;;4.00;;
73474;SDS011;61711;52.266;10.542;2022-12-20T12:12:39;7.30;;;3.60;;
73474;SDS011;61711;52.266;10.542;2022-12-20T12:17:54;7.55;;;3.83;;
73474;SDS011;61711;52.266;10.542;2022-12-20T12:21:09;9.43;;;3.97;;
73474;SDS011;61711;52.266;10.542;2022-12-20T12:25:43;5.20;;;3.50;;
73474;SDS011;61711;52.266;10.542;2022-12-20T12:28:13;6.93;;;4.18;;
73474;SDS011;61711;52.266;10.542;2022-12-20T12:30:40;7.18;;;3.67;;
73474;SDS011;61711;52.266;10.542;2022-12-20T12:33:14;6.70;;;3.83;;
73474;SDS011;61711;52.266;10.542;2022-12-20T12:36:25;5.20;;;3.70;;
73474;SDS011;61711;52.266;10.542;2022-12-20T12:41:22;5.07;;;3.28;;
73474;SDS011;61711;52.266;10.542;2022-12-20T12:43:50;4.75;;;3.30;;
73474;SDS011;61711;52.266;10.542;2022-12-20T12:51:20;10.18;;;3.80;;
73474;SDS011;61711;52.266;10.542;2022-12-20T12:53:48;5.47;;;3.78;;
73474;SDS011;61711;52.266;10.542;2022-12-20T13:11:53;6.88;;;3.97;;
73474;SDS011;61711;52.266;10.542;2022-12-20T13:21:57;8.23;;;3.40;;
73474;SDS011;61711;52.266;10.542;2022-12-20T13:27:14;6.32;;;3.67;;
73474;SDS011;61711;52.266;10.542;2022-12-20T13:35:10;4.75;;;3.53;;
73474;SDS011;61711;52.266;10.542;2022-12-20T13:45:53;6.25;;;3.30;;
73474;SDS011;61711;52.266;10.542;2022-12-20T13:48:30;5.53;;;3.60;;
73474;SDS011;61711;52.266;10.542;2022-12-20T13:51:00;6.25;;;3.80;;
73474;SDS011;61711;52.266;10.542;2022-12-20T13:53:26;4.80;;;3.17;;
73474;SDS011;61711;52.266;10.542;2022-12-20T13:55:53;5.18;;;3.30;;
73474;SDS011;61711;52.266;10.542;2022-12-20T13:58:29;5.15;;;3.17;;
73474;SDS011;61711;52.266;10.542;2022-12-20T14:01:04;5.43;;;3.15;;
73474;SDS011;61711;52.266;10.542;2022-12-20T14:03:30;5.80;;;3.33;;
73474;SDS011;61711;52.266;10.542;2022-12-20T14:05:57;4.90;;;3.20;;
73474;SDS011;61711;52.266;10.542;2022-12-20T14:08:25;5.68;;;3.25;;
73474;SDS011;61711;52.266;10.542;2022-12-20T14:10:52;5.70;;;3.38;;
73474;SDS011;61711;52.266;10.542;2022-12-20T14:13:20;5.22;;;3.33;;
73474;SDS011;61711;52.266;10.542;2022-12-20T14:15:46;5.85;;;3.42;;
73474;SDS011;61711;52.266;10.542;2022-12-20T14:18:19;5.30;;;2.95;;
73474;SDS011;61711;52.266;10.542;2022-12-20T14:20:57;5.13;;;3.25;;
73474;SDS011;61711;52.266;10.542;2022-12-20T14:23:35;4.97;;;3.28;;
73474;SDS011;61711;52.266;10.542;2022-12-20T14:26:02;9.02;;;3.25;;
73474;SDS011;61711;52.266;10.542;2022-12-20T14:30:54;4.38;;;3.00;;
73474;SDS011;61711;52.266;10.542;2022-12-20T14:36:10;6.25;;;3.42;;
73474;SDS011;61711;52.266;10.542;2022-12-20T14:38:43;6.05;;;3.40;;
73474;SDS011;61711;52.266;10.542;2022-12-20T14:41:27;5.55;;;3.38;;
73474;SDS011;61711;52.266;10.542;2022-12-20T14:43:54;5.50;;;3.47;;
73474;SDS011;61711;52.266;10.542;2022-12-20T14:46:20;5.68;;;3.55;;
73474;SDS011;61711;52.266;10.542;2022-12-20T14:48:46;5.45;;;3.47;;
73474;SDS011;61711;52.266;10.542;2022-12-20T14:51:18;6.25;;;3.60;;
73474;SDS011;61711;52.266;10.542;2022-12-20T14:53:45;7.25;;;3.67;;
73474;SDS011;61711;52.266;10.542;2022-12-20T14:56:12;5.90;;;4.10;;
73474;SDS011;61711;52.266;10.542;2022-12-20T14:58:39;7.85;;;4.30;;
73474;SDS011;61711;52.266;10.542;2022-12-20T15:01:18;8.93;;;4.32;;
73474;SDS011;61711;52.266;10.542;2022-12-20T15:03:52;16.40;;;8.82;;
73474;SDS011;61711;52.266;10.542;2022-12-20T15:08:57;12.52;;;6.50;;
73474;SDS011;61711;52.266;10.542;2022-12-20T15:11:23;10.13;;;5.80;;
73474;SDS011;61711;52.266;10.542;2022-12-20T15:13:50;9.10;;;5.10;;
73474;SDS011;61711;52.266;10.542;2022-12-20T15:16:24;9.25;;;4.60;;
73474;SDS011;61711;52.266;10.542;2022-12-20T15:19:00;11.07;;;4.97;;
73474;SDS011;61711;52.266;10.542;2022-12-20T15:23:56;9.30;;;4.72;;
73474;SDS011;61711;52.266;10.542;2022-12-20T15:26:23;11.80;;;4.97;;
73474;SDS011;61711;52.266;10.542;2022-12-20T15:28:49;26.65;;;12.88;;
73474;SDS011;61711;52.266;10.542;2022-12-20T15:31:18;22.58;;;10.95;;
73474;SDS011;61711;52.266;10.542;2022-12-20T15:33:44;9.93;;;4.93;;
73474;SDS011;61711;52.266;10.542;2022-12-20T15:36:18;6.95;;;4.10;;
73474;SDS011;61711;52.266;10.542;2022-12-20T15:38:44;5.95;;;3.97;;
73474;SDS011;61711;52.266;10.542;2022-12-20T15:41:32;6.15;;;3.78;;
73474;SDS011;61711;52.266;10.542;2022-12-20T15:44:02;6.57;;;3.97;;
73474;SDS011;61711;52.266;10.542;2022-12-20T15:46:29;6.93;;;3.72;;
73474;SDS011;61711;52.266;10.542;2022-12-20T15:48:55;6.47;;;3.85;;
73474;SDS011;61711;52.266;10.542;2022-12-20T15:51:32;6.22;;;3.88;;
73474;SDS011;61711;52.266;10.542;2022-12-20T15:53:59;7.97;;;3.92;;
73474;SDS011;61711;52.266;10.542;2022-12-20T15:56:26;7.60;;;3.97;;
73474;SDS011;61711;52.266;10.542;2022-12-20T15:58:52;6.10;;;4.35;;
73474;SDS011;61711;52.266;10.542;2022-12-20T16:01:20;6.40;;;4.13;;
73474;SDS011;61711;52.266;10.542;2022-12-20T16:03:47;15.93;;;9.38;;
73474;SDS011;61711;52.266;10.542;2022-12-20T16:06:13;15.40;;;8.98;;
73474;SDS011;61711;52.266;10.542;2022-12-20T16:08:40;7.65;;;4.57;;
73474;SDS011;61711;52.266;10.542;2022-12-20T16:11:09;7.10;;;4.38;;
73474;SDS011;61711;52.266;10.542;2022-12-20T16:13:39;7.63;;;4.78;;
73474;SDS011;61711;52.266;10.542;2022-12-20T16:16:05;7.22;;;4.53;;
73474;SDS011;61711;52.266;10.542;2022-12-20T16:18:32;8.90;;;5.00;;
73474;SDS011;61711;52.266;10.542;2022-12-20T16:20:58;20.92;;;10.52;;
73474;SDS011;61711;52.266;10.542;2022-12-20T16:23:24;12.05;;;6.68;;
73474;SDS011;61711;52.266;10.542;2022-12-20T16:25:51;10.15;;;5.07;;
73474;SDS011;61711;52.266;10.542;2022-12-20T16:28:17;9.60;;;5.13;;
73474;SDS011;61711;52.266;10.542;2022-12-20T16:30:43;9.25;;;5.13;;
73474;SDS011;61711;52.266;10.542;2022-12-20T16:33:16;8.88;;;5.30;;
73474;SDS011;61711;52.266;10.542;2022-12-20T16:35:44;9.85;;;5.15;;
73474;SDS011;61711;52.266;10.542;2022-12-20T16:38:10;13.85;;;5.50;;
73474;SDS011;61711;52.266;10.542;2022-12-20T16:40:36;10.48;;;5.15;;
73474;SDS011;61711;52.266;10.542;2022-12-20T16:43:02;11.13;;;5.30;;
73474;SDS011;61711;52.266;10.542;2022-12-20T16:45:29;9.82;;;5.18;;
73474;SDS011;61711;52.266;10.542;2022-12-20T16:47:55;10.13;;;5.20;;
73474;SDS011;61711;52.266;10.542;2022-12-20T16:50:23;8.68;;;5.40;;